Cardiff, Alabama
Current Conditions -  °F | °C
As of 1:53 PM on Sunday 21 Dec 2014 (Local Time) from KBHM Reporting Station
Broken Clouds Broken Clouds  
Wind Chill: 56°   Ceiling: 2200
Heat Index: 56°   Visibility: 10mi
Dew Point: 45°   Wind: 6mph
Humidity: 67%   Direction: 130°SE
Pressure: 30.09"   Gusts: NA
Location:  33.65°N, 86.93°W
Report Text: KBHM 211953Z 13005KT 10SM BKN022 BKN250 13/07 A3009 RMK AO2 SLP189 T01330072
Loading
Personal Weather Stations






























Interactive Weather Map New forecast layout! Learn more

10-Day Weather Forecast

Advertisements
Track Severe Weather on mobile